createdAt,value
2023-01-28T00:01:43.349Z,99173.88
2023-01-28T00:04:46.179Z,99176.25
2023-01-28T00:07:51.857Z,99177.19
2023-01-28T00:10:54.596Z,99177.25
2023-01-28T00:13:57.220Z,99162.47
2023-01-28T00:17:00.158Z,99168.38
2023-01-28T00:20:02.924Z,99170.31
2023-01-28T00:23:07.423Z,99172.75
2023-01-28T00:26:13.494Z,99170.31
2023-01-28T00:29:16.280Z,99168.84
2023-01-28T00:32:18.992Z,99166.97
2023-01-28T00:35:21.494Z,99168.09
2023-01-28T00:38:25.664Z,99161.34
2023-01-28T00:41:30.035Z,99148.91
2023-01-28T00:44:32.879Z,99155.03
2023-01-28T00:47:35.627Z,99147.00
2023-01-28T00:50:39.436Z,99150.88
2023-01-28T00:53:43.384Z,99155.44
2023-01-28T00:56:46.454Z,99154.91
2023-01-28T00:59:49.007Z,99159.66
2023-01-28T01:02:51.670Z,99154.09
2023-01-28T01:05:54.204Z,99157.59
2023-01-28T01:09:03.583Z,99151.66
2023-01-28T01:12:06.634Z,99145.38
2023-01-28T01:15:12.525Z,99150.00
2023-01-28T01:18:15.479Z,99157.72
2023-01-28T01:21:20.304Z,99161.84
2023-01-28T01:24:24.398Z,99160.28
2023-01-28T01:27:26.981Z,99164.66
2023-01-28T01:30:29.624Z,99165.78
2023-01-28T01:33:32.908Z,99169.31
2023-01-28T01:36:35.609Z,99163.34
2023-01-28T01:39:39.593Z,99172.28
2023-01-28T01:42:42.246Z,99167.22
2023-01-28T01:45:45.879Z,99162.09
2023-01-28T01:48:48.810Z,99170.81
2023-01-28T01:51:55.504Z,99168.97
2023-01-28T01:55:00.846Z,99168.91
2023-01-28T01:58:08.197Z,99169.53
2023-01-28T02:01:11.684Z,99179.50
2023-01-28T02:04:20.214Z,99177.06
2023-01-28T02:07:23.098Z,99173.03
2023-01-28T02:10:27.163Z,99168.59
2023-01-28T02:13:33.076Z,99177.19
2023-01-28T02:16:35.997Z,99176.50
2023-01-28T02:19:40.892Z,99176.59
2023-01-28T02:23:05.822Z,99184.19
2023-01-28T02:26:22.665Z,99179.28
2023-01-28T02:29:28.892Z,99178.81
2023-01-28T02:32:36.197Z,99184.75
2023-01-28T02:35:43.147Z,99183.75
2023-01-28T02:38:48.928Z,99174.34
2023-01-28T02:41:56.384Z,99176.22
2023-01-28T02:45:00.460Z,99182.78
2023-01-28T02:48:02.128Z,99179.88
2023-01-28T02:51:11.856Z,99179.63
2023-01-28T02:54:18.825Z,99186.56
2023-01-28T02:57:31.666Z,99189.84
2023-01-28T03:00:45.179Z,99190.13
2023-01-28T03:03:57.167Z,99195.03
2023-01-28T03:07:04.261Z,99191.72
2023-01-28T03:10:10.410Z,99197.66
2023-01-28T03:13:30.500Z,99194.97
2023-01-28T03:16:52.575Z,99199.28
2023-01-28T03:20:13.071Z,99193.78
2023-01-28T03:23:36.759Z,99196.66
2023-01-28T03:27:01.661Z,99190.78
2023-01-28T03:30:28.063Z,99181.69
2023-01-28T03:33:50.727Z,99197.44
2023-01-28T03:36:54.588Z,99194.69
2023-01-28T03:39:58.222Z,99200.06
2023-01-28T03:43:00.861Z,99200.38
2023-01-28T03:46:06.217Z,99202.84
2023-01-28T03:49:10.283Z,99209.22
2023-01-28T03:52:13.356Z,99217.34
2023-01-28T03:55:16.799Z,99221.91
2023-01-28T03:58:20.490Z,99211.66
2023-01-28T04:01:23.098Z,99214.63
2023-01-28T04:04:28.161Z,99209.97
2023-01-28T04:07:30.849Z,99205.19
2023-01-28T04:10:33.432Z,99211.47
2023-01-28T04:13:35.994Z,99210.66
2023-01-28T04:16:38.581Z,99219.56
2023-01-28T04:19:42.833Z,99219.81
2023-01-28T04:22:45.552Z,99218.00
2023-01-28T04:25:51.099Z,99220.69
2023-01-28T04:28:53.780Z,99227.19
2023-01-28T04:31:56.987Z,99232.56
2023-01-28T04:35:00.928Z,99238.72
2023-01-28T04:38:03.532Z,99237.22
2023-01-28T04:41:06.411Z,99234.47
2023-01-28T04:44:09.968Z,99244.03
2023-01-28T04:47:12.587Z,99244.81
2023-01-28T04:50:17.293Z,99249.75
2023-01-28T04:53:20.008Z,99248.78
2023-01-28T04:56:22.653Z,99254.50
2023-01-28T04:59:25.529Z,99259.44
2023-01-28T05:02:28.307Z,99246.03
2023-01-28T05:05:32.323Z,99255.72
2023-01-28T05:08:35.049Z,99264.34
2023-01-28T05:11:39.245Z,99264.53
2023-01-28T05:14:42.152Z,99265.44
2023-01-28T05:17:45.050Z,99267.88
2023-01-28T05:20:49.017Z,99262.72
2023-01-28T05:23:51.574Z,99264.34
2023-01-28T05:26:54.378Z,99255.13
2023-01-28T05:29:57.066Z,99252.19
2023-01-28T05:32:59.820Z,99254.06
2023-01-28T05:36:04.061Z,99257.13
2023-01-28T05:39:07.629Z,99261.22
2023-01-28T05:42:10.429Z,99259.28
2023-01-28T05:45:13.881Z,99263.59
2023-01-28T05:48:16.709Z,99258.53
2023-01-28T05:51:20.894Z,99260.44
2023-01-28T05:54:23.454Z,99261.25
2023-01-28T05:57:26.130Z,99269.66
2023-01-28T06:00:29.121Z,99259.16
2023-01-28T06:03:31.884Z,99266.66
2023-01-28T06:06:35.981Z,99268.84
2023-01-28T06:09:38.711Z,99270.75
2023-01-28T06:12:41.464Z,99279.91
2023-01-28T06:15:44.340Z,99278.91
2023-01-28T06:18:47.038Z,99283.78
2023-01-28T06:21:51.013Z,99284.59
2023-01-28T06:24:53.891Z,99303.25
2023-01-28T06:27:56.573Z,99310.59
2023-01-28T06:30:59.380Z,99312.81
2023-01-28T06:34:02.000Z,99302.25
2023-01-28T06:37:06.102Z,99317.31
2023-01-28T06:40:10.326Z,99316.25
2023-01-28T06:43:12.983Z,99318.44
2023-01-28T06:46:15.802Z,99324.41
2023-01-28T06:49:18.452Z,99320.50
2023-01-28T06:52:22.736Z,99324.78
2023-01-28T06:55:25.524Z,99328.84
2023-01-28T06:58:28.756Z,99337.47
2023-01-28T07:01:31.589Z,99338.38
2023-01-28T07:04:34.319Z,99338.94
2023-01-28T07:07:40.739Z,99338.78
2023-01-28T07:10:44.712Z,99338.63
2023-01-28T07:13:47.500Z,99336.00
2023-01-28T07:16:50.317Z,99344.97
2023-01-28T07:19:53.012Z,99341.53
2023-01-28T07:22:56.992Z,99349.66
2023-01-28T07:26:03.020Z,99351.63
2023-01-28T07:29:05.637Z,99354.38
2023-01-28T07:32:08.515Z,99348.44
2023-01-28T07:35:11.783Z,99352.31
2023-01-28T07:38:16.256Z,99366.75
2023-01-28T07:41:18.993Z,99354.88
2023-01-28T07:44:22.025Z,99360.34
2023-01-28T07:47:24.622Z,99356.06
2023-01-28T07:50:29.105Z,99357.44
2023-01-28T07:53:33.525Z,99366.75
2023-01-28T07:56:36.252Z,99362.03
2023-01-28T07:59:39.224Z,99375.19
2023-01-28T08:02:44.994Z,99382.03
2023-01-28T08:05:49.162Z,99378.47
2023-01-28T08:08:53.329Z,99376.69
2023-01-28T08:11:56.012Z,99377.56
2023-01-28T08:14:58.708Z,99380.91
2023-01-28T08:18:01.853Z,99382.13
2023-01-28T08:21:05.501Z,99385.00
2023-01-28T08:24:09.806Z,99382.38
2023-01-28T08:27:12.509Z,99389.19
2023-01-28T08:30:15.887Z,99389.97
2023-01-28T08:33:19.948Z,99394.47
2023-01-28T08:36:22.348Z,99389.38
2023-01-28T08:39:26.387Z,99392.13
2023-01-28T08:42:28.998Z,99396.59
2023-01-28T08:45:32.053Z,99385.88
2023-01-28T08:48:34.696Z,99390.47
2023-01-28T08:51:37.366Z,99385.06
2023-01-28T08:54:41.352Z,99389.50
2023-01-28T08:57:44.160Z,99404.09
2023-01-28T09:00:47.506Z,99395.75
2023-01-28T09:03:50.413Z,99396.69
2023-01-28T09:06:53.218Z,99401.28
2023-01-28T09:09:57.204Z,99402.22
2023-01-28T09:12:59.881Z,99396.06
2023-01-28T09:16:06.093Z,99400.72
2023-01-28T09:19:08.841Z,99404.53
2023-01-28T09:22:11.787Z,99404.56
2023-01-28T09:25:15.770Z,99410.28
2023-01-28T09:28:18.611Z,99416.00
2023-01-28T09:31:21.399Z,99417.88
2023-01-28T09:34:24.006Z,99431.09
2023-01-28T09:37:26.815Z,99426.22
2023-01-28T09:40:36.002Z,99428.06
2023-01-28T09:43:51.713Z,99427.81
2023-01-28T09:46:54.381Z,99435.41
2023-01-28T09:50:00.337Z,99438.38
2023-01-28T09:53:06.959Z,99440.84
2023-01-28T09:56:14.641Z,99445.09
2023-01-28T09:59:20.239Z,99438.66
2023-01-28T10:02:39.150Z,99448.41
2023-01-28T10:05:48.253Z,99440.75
2023-01-28T10:09:22.564Z,99445.06
2023-01-28T10:12:40.726Z,99439.06
2023-01-28T10:15:51.570Z,99437.19
2023-01-28T10:18:57.386Z,99435.72
2023-01-28T10:22:03.332Z,99429.72
2023-01-28T10:25:09.588Z,99434.78
2023-01-28T10:28:20.182Z,99429.13
2023-01-28T10:31:23.770Z,99424.28
2023-01-28T10:34:26.804Z,99420.31
2023-01-28T10:37:30.168Z,99425.72
2023-01-28T10:40:33.051Z,99416.25
2023-01-28T10:43:39.713Z,99409.31
2023-01-28T10:46:45.560Z,99418.84
2023-01-28T10:49:51.934Z,99410.91
2023-01-28T10:52:56.072Z,99411.53
2023-01-28T10:56:01.399Z,99419.38
2023-01-28T10:59:07.598Z,99424.00
2023-01-28T11:02:26.017Z,99411.84
2023-01-28T11:05:30.856Z,99424.78
2023-01-28T11:08:44.898Z,99414.19
2023-01-28T11:11:47.544Z,99428.81
2023-01-28T11:14:56.990Z,99418.56
2023-01-28T11:18:02.137Z,99424.59
2023-01-28T11:21:06.589Z,99424.41
2023-01-28T11:24:16.209Z,99423.34
2023-01-28T11:27:20.032Z,99428.25
2023-01-28T11:30:27.606Z,99426.31
2023-01-28T11:33:34.129Z,99426.78
2023-01-28T11:36:36.804Z,99419.59
2023-01-28T11:39:40.869Z,99427.66
2023-01-28T11:42:43.654Z,99429.72
2023-01-28T11:45:53.612Z,99429.41
2023-01-28T11:49:02.310Z,99421.19
2023-01-28T11:52:14.004Z,99427.19
2023-01-28T11:55:33.409Z,99413.66
2023-01-28T11:58:45.273Z,99422.03
2023-01-28T12:01:53.603Z,99428.28
2023-01-28T12:05:10.007Z,99423.88
2023-01-28T12:08:19.594Z,99425.34
2023-01-28T12:12:00.031Z,99426.91
2023-01-28T12:15:26.169Z,99429.09
2023-01-28T12:18:50.604Z,99427.81
2023-01-28T12:22:07.061Z,99433.09
2023-01-28T12:25:21.530Z,99429.59
2023-01-28T12:28:30.733Z,99425.78
2023-01-28T12:31:43.409Z,99423.28
2023-01-28T12:35:00.120Z,99432.72
2023-01-28T12:38:10.281Z,99429.84
2023-01-28T12:41:16.327Z,99431.69
2023-01-28T12:44:23.695Z,99430.16
2023-01-28T12:47:30.193Z,99428.03
2023-01-28T12:50:37.877Z,99423.59
2023-01-28T12:53:43.923Z,99423.25
2023-01-28T12:56:51.178Z,99414.56
2023-01-28T12:59:57.830Z,99415.59
2023-01-28T13:03:10.887Z,99412.38
2023-01-28T13:06:18.024Z,99414.41
2023-01-28T13:09:22.958Z,99409.63
2023-01-28T13:12:25.734Z,99412.97
2023-01-28T13:15:28.758Z,99417.47
2023-01-28T13:18:34.938Z,99420.53
2023-01-28T13:21:48.635Z,99429.94
2023-01-28T13:24:52.097Z,99422.50
2023-01-28T13:28:00.249Z,99417.63
2023-01-28T13:31:04.817Z,99417.88
2023-01-28T13:34:08.830Z,99418.72
2023-01-28T13:37:26.123Z,99427.59
2023-01-28T13:40:30.172Z,99425.97
2023-01-28T13:43:38.666Z,99427.28
2023-01-28T13:46:41.406Z,99424.19
2023-01-28T13:49:45.972Z,99423.63
2023-01-28T13:52:57.210Z,99434.81
2023-01-28T13:56:00.219Z,99432.59
2023-01-28T13:59:15.585Z,99446.47
2023-01-28T14:02:52.816Z,99437.50
2023-01-28T14:06:22.937Z,99436.06
2023-01-28T14:09:54.219Z,99445.06
2023-01-28T14:13:21.351Z,99445.28
2023-01-28T14:16:31.789Z,99440.97
2023-01-28T14:19:38.119Z,99450.22
2023-01-28T14:22:42.480Z,99453.19
2023-01-28T14:25:55.476Z,99456.47
2023-01-28T14:29:06.387Z,99456.75
2023-01-28T14:32:14.507Z,99464.00
2023-01-28T14:35:21.416Z,99465.19
2023-01-28T14:38:25.392Z,99468.50
2023-01-28T14:41:29.827Z,99473.50
2023-01-28T14:44:40.671Z,99475.03
2023-01-28T14:48:00.866Z,99465.66
2023-01-28T14:51:13.521Z,99480.06
2023-01-28T14:54:26.699Z,99480.81
2023-01-28T14:57:55.750Z,99485.63
2023-01-28T15:01:00.897Z,99490.09
2023-01-28T15:04:03.899Z,99493.59
2023-01-28T15:07:17.689Z,99496.84
2023-01-28T15:10:49.233Z,99491.72
2023-01-28T15:21:17.003Z,99505.88
2023-01-28T15:24:19.865Z,99505.88
2023-01-28T15:27:28.431Z,99517.16
2023-01-28T15:30:32.478Z,99519.69
2023-01-28T15:33:35.263Z,99514.50
2023-01-28T15:36:39.617Z,99521.22
2023-01-28T15:39:42.296Z,99530.88
2023-01-28T15:42:46.969Z,99527.06
2023-01-28T15:45:51.387Z,99524.31
2023-01-28T15:49:00.410Z,99532.41
2023-01-28T15:52:05.095Z,99535.47
2023-01-28T15:55:30.012Z,99545.16
2023-01-28T16:02:41.366Z,99537.75
2023-01-28T16:05:56.855Z,99540.94
2023-01-28T16:09:02.963Z,99541.75
2023-01-28T16:12:31.243Z,99556.94
2023-01-28T16:15:36.596Z,99547.72
2023-01-28T16:18:55.373Z,99562.75
2023-01-28T16:22:14.068Z,99556.06
2023-01-28T16:25:35.950Z,99562.97
2023-01-28T16:29:14.142Z,99565.22
2023-01-28T16:32:49.868Z,99559.75
2023-01-28T16:39:49.047Z,99568.81
2023-01-28T16:42:55.080Z,99566.97
2023-01-28T16:46:09.337Z,99570.91
2023-01-28T16:49:20.379Z,99574.50
2023-01-28T16:52:22.949Z,99575.31
2023-01-28T16:55:25.697Z,99565.66
2023-01-28T16:58:29.985Z,99569.19
2023-01-28T17:01:32.757Z,99561.81
2023-01-28T17:04:35.511Z,99562.16
2023-01-28T17:07:38.267Z,99567.84
2023-01-28T17:10:40.833Z,99567.03
2023-01-28T17:13:44.906Z,99570.00
2023-01-28T17:16:47.346Z,99568.38
2023-01-28T17:19:50.170Z,99570.44
2023-01-28T17:22:52.863Z,99568.72
2023-01-28T17:25:55.466Z,99570.22
2023-01-28T17:28:59.839Z,99569.00
2023-01-28T17:32:02.673Z,99572.53
2023-01-28T17:35:06.407Z,99584.53
2023-01-28T17:38:10.391Z,99577.09
2023-01-28T17:41:14.795Z,99578.19
2023-01-28T17:44:19.685Z,99580.94
2023-01-28T17:47:22.344Z,99583.22
2023-01-28T17:50:24.981Z,99585.13
2023-01-28T17:53:27.662Z,99598.59
2023-01-28T17:56:31.201Z,99588.38
2023-01-28T17:59:35.207Z,99593.78
2023-01-28T18:02:37.773Z,99595.09
2023-01-28T18:05:40.451Z,99588.97
2023-01-28T18:08:43.208Z,99597.53
2023-01-28T18:11:46.182Z,99599.34
2023-01-28T18:14:50.422Z,99601.66
2023-01-28T18:17:53.499Z,99602.47
2023-01-28T18:20:58.819Z,99597.53
2023-01-28T18:24:02.405Z,99594.75
2023-01-28T18:27:05.175Z,99606.38
2023-01-28T18:30:11.223Z,99603.75
2023-01-28T18:33:13.886Z,99597.16
2023-01-28T18:36:17.097Z,99597.88
2023-01-28T18:39:20.987Z,99605.63
2023-01-28T18:42:23.587Z,99609.75
2023-01-28T18:45:27.796Z,99613.56
2023-01-28T18:48:30.915Z,99613.09
2023-01-28T18:51:33.537Z,99618.06
2023-01-28T18:54:36.555Z,99616.09
2023-01-28T18:57:39.939Z,99633.09
2023-01-28T19:00:43.974Z,99633.03
2023-01-28T19:03:46.920Z,99623.38
2023-01-28T19:06:49.950Z,99629.34
2023-01-28T19:09:52.536Z,99633.75
2023-01-28T19:12:55.329Z,99632.22
2023-01-28T19:16:02.537Z,99637.91
2023-01-28T19:19:05.489Z,99627.13
2023-01-28T19:22:08.506Z,99639.72
2023-01-28T19:25:11.392Z,99630.34
2023-01-28T19:28:14.124Z,99630.72
2023-01-28T19:31:19.720Z,99634.66
2023-01-28T19:34:22.398Z,99631.63
2023-01-28T19:37:25.613Z,99634.47
2023-01-28T19:40:28.497Z,99639.06
2023-01-28T19:43:31.456Z,99635.47
2023-01-28T19:46:37.110Z,99639.88
2023-01-28T19:49:39.851Z,99645.53
2023-01-28T19:52:42.699Z,99639.06
2023-01-28T19:55:45.412Z,99645.69
2023-01-28T19:58:48.161Z,99639.63
2023-01-28T20:01:52.564Z,99636.22
2023-01-28T20:05:00.866Z,99644.84
2023-01-28T20:08:04.630Z,99645.44
2023-01-28T20:11:09.056Z,99645.94
2023-01-28T20:14:11.899Z,99647.94
2023-01-28T20:17:15.974Z,99656.19
2023-01-28T20:20:18.905Z,99654.31
2023-01-28T20:23:21.836Z,99653.34
2023-01-28T20:26:26.127Z,99651.16
2023-01-28T20:29:28.728Z,99660.19
2023-01-28T20:32:33.544Z,99666.06
2023-01-28T20:35:36.517Z,99676.44
2023-01-28T20:38:40.428Z,99675.03
2023-01-28T20:41:43.050Z,99678.56
2023-01-28T20:44:45.624Z,99687.69
2023-01-28T20:47:50.019Z,99694.63
2023-01-28T20:50:52.706Z,99699.31
2023-01-28T20:53:55.949Z,99710.09
2023-01-28T20:56:58.637Z,99725.50
2023-01-28T21:00:01.216Z,99710.84
2023-01-28T21:03:05.300Z,99722.91
2023-01-28T21:06:08.213Z,99715.88
2023-01-28T21:09:11.101Z,99701.34
2023-01-28T21:12:14.011Z,99705.81
2023-01-28T21:15:17.028Z,99708.75
2023-01-28T21:18:21.328Z,99710.84
2023-01-28T21:21:25.846Z,99724.44
2023-01-28T21:24:28.989Z,99719.63
2023-01-28T21:27:33.497Z,99718.22
2023-01-28T21:30:36.316Z,99714.06
2023-01-28T21:33:40.496Z,99713.00
2023-01-28T21:36:43.563Z,99710.44
2023-01-28T21:39:46.256Z,99708.56
2023-01-28T21:42:48.892Z,99711.72
2023-01-28T21:45:56.105Z,99701.91
2023-01-28T21:49:01.283Z,99705.78
2023-01-28T21:52:03.994Z,99703.81
2023-01-28T21:55:07.561Z,99698.06
2023-01-28T21:58:24.276Z,99700.53
2023-01-28T22:01:27.616Z,99712.13
2023-01-28T22:04:33.768Z,99702.75
2023-01-28T22:07:36.459Z,99703.00
2023-01-28T22:10:39.121Z,99704.91
2023-01-28T22:13:42.680Z,99705.44
2023-01-28T22:16:45.540Z,99708.56
2023-01-28T22:19:49.894Z,99709.06
2023-01-28T22:22:52.553Z,99705.22
2023-01-28T22:25:55.916Z,99716.06
2023-01-28T22:28:59.114Z,99707.84
2023-01-28T22:32:04.083Z,99713.34
2023-01-28T22:35:08.755Z,99713.00
2023-01-28T22:38:11.595Z,99713.34
2023-01-28T22:41:18.949Z,99700.81
2023-01-28T22:44:21.588Z,99696.06
2023-01-28T22:47:24.307Z,99702.44
2023-01-28T22:50:28.519Z,99710.53
2023-01-28T22:53:31.299Z,99701.88
2023-01-28T22:56:33.886Z,99697.88
2023-01-28T22:59:36.507Z,99704.81
2023-01-28T23:02:39.198Z,99707.63
2023-01-28T23:05:43.591Z,99713.84
2023-01-28T23:08:47.005Z,99697.19
2023-01-28T23:11:49.730Z,99705.25
2023-01-28T23:15:10.185Z,99703.38
2023-01-28T23:18:31.704Z,99712.19
2023-01-28T23:21:54.873Z,99710.41
2023-01-28T23:24:57.626Z,99712.41
2023-01-28T23:28:01.247Z,99712.56
2023-01-28T23:31:04.037Z,99713.50
2023-01-28T23:34:07.514Z,99704.03
2023-01-28T23:37:12.852Z,99708.34
2023-01-28T23:40:16.721Z,99703.53
2023-01-28T23:43:19.571Z,99705.28
2023-01-28T23:46:37.831Z,99706.09
2023-01-28T23:49:41.922Z,99699.78
2023-01-28T23:52:46.141Z,99698.41
2023-01-28T23:55:48.743Z,99690.56
2023-01-28T23:58:51.500Z,99683.88
